Time;durP1;ratioP1;P1;durP2;ratioP2;P2;SDS_P1;SDS_P2;PMS_P1;PMS_P2;Temp;Humidity;BMP_temperature;BMP_pressure;BME280_temperature;BME280_humidity;BME280_pressure;Samples;Min_cycle;Max_cycle;Signal;HPM_P1;HPM_P2
2023/03/20 00:02:26;;;;;;;55.10;42.62;;;27.20;81.70;;;;;;1937237;73;21937;-80
2023/03/20 00:04:57;;;;;;;56.95;42.90;;;27.30;81.90;;;;;;1907828;75;21113;-79
2023/03/20 00:07:28;;;;;;;53.35;42.98;;;27.30;82.10;;;;;;1919323;74;21163;-80
2023/03/20 00:09:59;;;;;;;66.67;46.23;;;27.30;82.20;;;;;;1911000;74;21804;-79
2023/03/20 00:15:27;;;;;;;67.47;49.93;;;27.40;82.30;;;;;;1862644;76;21236;-80
2023/03/20 00:17:59;;;;;;;62.03;47.90;;;27.40;82.00;;;;;;1848358;77;21152;-80
2023/03/20 00:20:30;;;;;;;62.17;48.73;;;27.40;82.20;;;;;;1851412;76;21248;-80
2023/03/20 00:23:03;;;;;;;67.97;49.00;;;27.40;82.20;;;;;;1867898;76;21147;-80
2023/03/20 00:25:35;;;;;;;64.82;50.23;;;27.50;82.20;;;;;;1847952;76;21601;-81
2023/03/20 00:28:11;;;;;;;65.30;46.23;;;27.50;82.30;;;;;;1876869;76;21132;-80
2023/03/20 00:30:42;;;;;;;59.93;49.50;;;27.50;82.20;;;;;;1832500;77;21205;-80
2023/03/20 00:33:13;;;;;;;63.23;48.90;;;27.60;82.20;;;;;;1832044;76;21149;-80
2023/03/20 00:35:45;;;;;;;61.83;49.48;;;27.60;81.90;;;;;;1862108;76;21185;-79
2023/03/20 00:38:16;;;;;;;61.55;48.73;;;27.70;82.00;;;;;;1858692;75;21134;-79
2023/03/20 00:40:47;;;;;;;58.52;47.55;;;27.70;81.60;;;;;;1855456;76;21225;-79
2023/03/20 00:43:18;;;;;;;62.90;49.95;;;27.70;81.70;;;;;;1857072;76;21135;-79
2023/03/20 00:45:49;;;;;;;62.83;50.00;;;27.80;81.70;;;;;;1858890;75;21608;-80
2023/03/20 00:48:20;;;;;;;60.98;47.58;;;27.80;81.50;;;;;;1845519;78;21639;-79
2023/03/20 00:50:52;;;;;;;65.32;49.77;;;27.80;81.50;;;;;;1862350;76;21198;-79
2023/03/20 00:53:23;;;;;;;69.20;51.20;;;27.80;81.80;;;;;;1871797;76;21305;-80
2023/03/20 00:55:55;;;;;;;60.48;49.13;;;27.80;81.60;;;;;;1862859;75;21205;-80
2023/03/20 00:58:26;;;;;;;63.65;49.15;;;27.90;81.70;;;;;;1850032;76;21532;-80
2023/03/20 01:00:57;;;;;;;61.55;49.35;;;27.90;82.00;;;;;;1864762;75;21126;-80
2023/03/20 01:03:28;;;;;;;64.65;49.95;;;27.90;82.20;;;;;;1890229;75;21213;-78
2023/03/20 01:05:59;;;;;;;61.95;48.00;;;27.90;82.00;;;;;;1867030;75;21186;-80
2023/03/20 01:08:31;;;;;;;65.17;50.67;;;28.00;81.90;;;;;;1806345;78;21708;-79
2023/03/20 01:11:02;;;;;;;66.02;50.88;;;28.00;81.60;;;;;;1868139;75;21902;-80
2023/03/20 01:13:33;;;;;;;66.12;50.25;;;28.10;81.90;;;;;;1878181;74;21221;-80
2023/03/20 01:16:05;;;;;;;56.13;48.00;;;28.10;81.90;;;;;;1803725;78;21159;-80
2023/03/20 01:18:37;;;;;;;61.42;51.53;;;28.20;82.10;;;;;;1791364;79;21202;-79
2023/03/20 01:21:09;;;;;;;62.45;50.43;;;28.30;82.30;;;;;;1826476;77;21888;-80
2023/03/20 01:23:41;;;;;;;64.30;49.33;;;28.30;81.50;;;;;;1788228;79;21175;-80
2023/03/20 01:26:21;;;;;;;63.92;48.17;;;28.40;81.10;;;;;;1806621;75;21723;-77
2023/03/20 01:28:55;;;;;;;57.05;47.83;;;28.40;81.10;;;;;;1788123;79;21163;-78
2023/03/20 01:31:29;;;;;;;60.58;47.50;;;28.40;80.90;;;;;;1826415;77;21640;-77
2023/03/20 01:34:00;;;;;;;56.73;49.60;;;28.50;81.30;;;;;;1798104;79;21230;-78
2023/03/20 01:36:31;;;;;;;64.03;50.33;;;28.60;81.60;;;;;;1824147;78;21653;-77
2023/03/20 01:39:02;;;;;;;62.85;48.45;;;28.70;81.70;;;;;;1809917;77;21179;-75
2023/03/20 01:41:34;;;;;;;60.67;49.83;;;28.70;81.40;;;;;;1793449;79;21753;-74
2023/03/20 01:44:08;;;;;;;64.05;48.68;;;28.70;81.60;;;;;;1836953;78;21203;-77
2023/03/20 01:46:39;;;;;;;61.88;50.00;;;28.80;81.20;;;;;;1794291;78;21127;-78
2023/03/20 01:49:21;;;;;;;66.70;49.67;;;28.90;81.30;;;;;;1808433;77;21159;-78
2023/03/20 01:51:53;;;;;;;63.30;45.83;;;28.90;80.40;;;;;;1787724;79;21638;-76
2023/03/20 01:54:32;;;;;;;60.23;47.55;;;29.00;79.70;;;;;;1798647;79;21261;-77
2023/03/20 01:57:08;;;;;;;57.10;47.78;;;29.00;80.80;;;;;;1812489;78;21112;-78
2023/03/20 01:59:50;;;;;;;62.98;49.00;;;29.00;80.30;;;;;;1792363;79;21159;-77
2023/03/20 02:02:23;;;;;;;58.68;47.73;;;29.10;80.90;;;;;;1807702;78;21226;-78
2023/03/20 02:04:57;;;;;;;65.12;49.70;;;29.10;80.60;;;;;;1811279;78;21729;-77
2023/03/20 02:07:29;;;;;;;55.30;45.78;;;29.20;81.20;;;;;;1808460;78;21161;-77
2023/03/20 02:10:01;;;;;;;60.60;47.25;;;29.20;81.00;;;;;;1838644;77;21364;-77
2023/03/20 02:12:33;;;;;;;58.70;47.00;;;29.30;79.50;;;;;;1820881;77;21393;-77
2023/03/20 02:15:05;;;;;;;62.35;45.60;;;29.30;80.90;;;;;;1831248;77;21248;-76
2023/03/20 02:17:36;;;;;;;64.37;45.30;;;29.40;80.70;;;;;;1817543;77;21425;-77
2023/03/20 02:20:46;;;;;;;53.83;44.63;;;29.40;79.40;;;;;;1810720;78;21990;-78
2023/03/20 02:23:21;;;;;;;55.12;45.80;;;29.50;80.10;;;;;;1832097;77;21646;-79
2023/03/20 02:26:06;;;;;;;60.58;47.10;;;29.60;80.00;;;;;;1837284;76;21119;-78
2023/03/20 02:28:59;;;;;;;57.73;46.40;;;29.70;79.90;;;;;;1840127;78;21127;-78
2023/03/20 02:31:49;;;;;;;56.05;42.95;;;29.80;79.70;;;;;;1833066;78;21642;-79
2023/03/20 02:34:29;;;;;;;56.00;44.35;;;29.80;79.60;;;;;;1837976;77;21265;-77
2023/03/20 02:37:03;;;;;;;53.38;43.92;;;29.90;79.40;;;;;;1837437;78;21238;-76
2023/03/20 02:39:39;;;;;;;55.10;42.93;;;30.10;78.60;;;;;;1814569;78;21166;-76
2023/03/20 02:42:19;;;;;;;58.45;44.03;;;30.10;78.60;;;;;;1837710;77;21190;-75
2023/03/20 02:44:52;;;;;;;59.30;45.50;;;30.20;78.50;;;;;;1792554;78;21144;-79
2023/03/20 02:47:29;;;;;;;56.10;42.73;;;30.40;78.40;;;;;;1834825;77;21640;-78
2023/03/20 02:50:11;;;;;;;55.85;42.25;;;30.50;77.40;;;;;;1786875;80;21194;-78
2023/03/20 02:53:05;;;;;;;53.92;43.05;;;30.70;76.90;;;;;;1792849;79;21187;-78
2023/03/20 02:55:45;;;;;;;46.42;40.78;;;30.80;76.40;;;;;;1793959;79;21150;-78
2023/03/20 02:58:17;;;;;;;51.63;41.28;;;;;;;;;;1777531;79;21455;-77
2023/03/20 03:01:12;;;;;;;54.60;42.30;;;31.00;74.50;;;;;;1779067;79;21163;-78
2023/03/20 03:03:51;;;;;;;51.85;42.40;;;31.10;75.20;;;;;;1840433;77;21076;-78
2023/03/20 03:06:25;;;;;;;47.53;40.28;;;31.30;75.20;;;;;;1868584;75;21136;-79
2023/03/20 03:09:11;;;;;;;50.78;40.70;;;31.40;74.50;;;;;;1861049;76;21928;-78
2023/03/20 03:11:52;;;;;;;46.58;37.95;;;31.50;73.50;;;;;;1828660;77;21150;-77
2023/03/20 03:14:31;;;;;;;47.73;38.92;;;31.60;72.60;;;;;;1823143;78;21235;-78
2023/03/20 03:17:05;;;;;;;48.48;39.03;;;31.70;72.50;;;;;;1829595;77;22122;-79
2023/03/20 03:19:42;;;;;;;50.17;40.05;;;31.90;71.70;;;;;;1755654;80;21178;-77
2023/03/20 03:22:14;;;;;;;46.42;38.15;;;32.00;71.70;;;;;;1779110;79;21251;-78
2023/03/20 03:24:48;;;;;;;42.50;36.10;;;32.20;70.50;;;;;;1801564;78;21626;-79
2023/03/20 03:27:24;;;;;;;39.60;35.28;;;32.30;69.60;;;;;;1818938;77;21149;-79
2023/03/20 03:30:22;;;;;;;43.42;36.10;;;32.40;68.90;;;;;;1841030;76;21560;-80
2023/03/20 03:33:12;;;;;;;50.67;36.53;;;32.60;68.10;;;;;;1836508;78;22171;-81
2023/03/20 03:35:45;;;;;;;39.95;34.67;;;32.70;66.80;;;;;;1832807;78;21895;-78
2023/03/20 03:38:34;;;;;;;53.68;38.30;;;32.70;66.80;;;;;;1832220;78;21877;-80
2023/03/20 03:41:34;;;;;;;41.50;36.03;;;32.70;67.20;;;;;;1831504;76;21158;-78
2023/03/20 03:44:33;;;;;;;43.58;35.35;;;32.70;67.10;;;;;;1820331;76;21136;-79
2023/03/20 03:47:08;;;;;;;44.60;34.73;;;32.90;67.00;;;;;;1839627;78;21090;-78
2023/03/20 03:49:43;;;;;;;47.45;36.58;;;32.90;66.60;;;;;;1823168;78;21147;-77
2023/03/20 03:52:21;;;;;;;45.25;35.95;;;33.10;66.30;;;;;;1844948;76;21141;-75
2023/03/20 03:54:54;;;;;;;49.33;36.88;;;33.20;65.00;;;;;;1827851;77;21203;-76
2023/03/20 03:57:31;;;;;;;42.17;34.92;;;33.20;64.80;;;;;;1808370;79;21692;-75
2023/03/20 04:00:05;;;;;;;38.95;31.97;;;33.30;65.50;;;;;;1823310;76;21388;-79
2023/03/20 04:02:38;;;;;;;44.05;34.33;;;33.30;63.00;;;;;;1865709;76;21878;-78
2023/03/20 04:05:11;;;;;;;38.85;33.00;;;33.40;63.40;;;;;;1834608;78;21124;-76
2023/03/20 04:07:47;;;;;;;42.10;32.88;;;33.50;62.60;;;;;;1840569;78;21160;-76
2023/03/20 04:10:18;;;;;;;39.38;32.45;;;33.60;62.30;;;;;;1831532;78;21269;-74
2023/03/20 04:12:51;;;;;;;56.13;33.05;;;33.50;62.00;;;;;;1839766;78;21614;-77
2023/03/20 04:15:23;;;;;;;40.58;32.80;;;33.50;62.90;;;;;;1844586;76;21220;-75
2023/03/20 04:17:55;;;;;;;40.67;32.98;;;33.60;62.30;;;;;;1874505;75;21200;-75
2023/03/20 04:20:26;;;;;;;42.03;32.42;;;33.60;62.20;;;;;;1864537;76;21744;-75
2023/03/20 04:22:57;;;;;;;39.65;32.45;;;33.70;61.30;;;;;;1833975;78;21144;-74
2023/03/20 04:25:29;;;;;;;38.95;32.63;;;33.60;61.20;;;;;;1836722;77;21930;-77
2023/03/20 04:28:00;;;;;;;38.63;32.13;;;33.60;61.10;;;;;;1866813;76;21131;-76
2023/03/20 04:30:31;;;;;;;39.03;31.00;;;33.60;62.40;;;;;;1849179;75;21885;-77
2023/03/20 04:33:02;;;;;;;38.85;30.60;;;33.60;61.10;;;;;;1793460;78;21283;-75
2023/03/20 04:35:34;;;;;;;34.65;28.67;;;33.60;61.10;;;;;;1847118;77;21224;-75
2023/03/20 04:38:07;;;;;;;38.05;29.70;;;33.70;61.10;;;;;;1827780;78;21258;-75
2023/03/20 04:40:38;;;;;;;34.98;30.32;;;33.80;59.90;;;;;;1794295;78;21673;-76
2023/03/20 04:43:09;;;;;;;41.53;30.92;;;34.00;60.60;;;;;;1843954;77;21142;-77
2023/03/20 04:45:40;;;;;;;40.63;28.95;;;34.10;59.70;;;;;;1848646;77;21136;-76
2023/03/20 04:48:11;;;;;;;50.85;30.05;;;34.20;59.40;;;;;;1793763;80;21241;-75
2023/03/20 04:50:47;;;;;;;36.70;30.05;;;34.40;59.00;;;;;;1793920;80;21191;-76
2023/03/20 04:53:16;;;;;;;32.33;28.75;;;34.50;58.80;;;;;;1860100;76;21105;-73
2023/03/20 04:55:47;;;;;;;36.58;28.17;;;34.60;58.00;;;;;;1853980;76;21170;-75
2023/03/20 04:58:18;;;;;;;32.08;26.60;;;34.50;57.80;;;;;;1855655;76;21782;-77
2023/03/20 05:00:50;;;;;;;33.38;27.35;;;34.40;57.70;;;;;;1846652;76;21184;-76
2023/03/20 05:03:21;;;;;;;31.07;27.77;;;34.30;57.90;;;;;;1831279;77;21154;-77
2023/03/20 05:06:13;;;;;;;31.05;26.75;;;34.10;58.40;;;;;;1830371;77;21136;-75
2023/03/20 05:11:39;;;;;;;30.65;26.95;;;34.00;58.70;;;;;;1879687;75;21183;-76
2023/03/20 05:14:11;;;;;;;32.38;27.27;;;33.90;59.30;;;;;;1871073;75;21189;-77
2023/03/20 05:16:43;;;;;;;33.48;28.77;;;33.80;59.00;;;;;;1870367;75;21147;-77
2023/03/20 05:19:17;;;;;;;31.45;27.07;;;33.80;59.00;;;;;;1875246;75;21636;-76
2023/03/20 05:21:50;;;;;;;30.08;26.42;;;33.80;58.90;;;;;;1867948;75;21213;-75
2023/03/20 05:24:22;;;;;;;31.17;27.32;;;33.70;58.20;;;;;;1869682;75;21204;-77
2023/03/20 05:26:53;;;;;;;35.73;28.45;;;33.70;58.70;;;;;;1869331;75;21193;-77
2023/03/20 05:29:24;;;;;;;36.85;28.42;;;33.70;58.90;;;;;;1880941;75;21497;-78
2023/03/20 05:31:55;;;;;;;31.90;27.50;;;33.80;59.30;;;;;;1859887;75;21802;-78
2023/03/20 05:34:26;;;;;;;33.63;26.95;;;34.00;58.70;;;;;;1860468;75;21230;-77
2023/03/20 05:39:51;;;;;;;33.75;28.83;;;34.00;58.70;;;;;;1873037;75;21161;-77
2023/03/20 05:42:22;;;;;;;36.42;30.65;;;34.00;58.90;;;;;;1861535;75;21167;-77
2023/03/20 05:44:53;;;;;;;36.13;29.25;;;34.00;58.60;;;;;;1863882;75;21237;-77
2023/03/20 05:47:24;;;;;;;32.58;27.30;;;34.10;58.20;;;;;;1884015;75;21118;-77
2023/03/20 05:49:55;;;;;;;32.83;26.57;;;34.40;57.80;;;;;;1878211;75;21119;-76
2023/03/20 05:52:26;;;;;;;35.40;28.27;;;34.60;56.70;;;;;;1867173;75;21193;-77
2023/03/20 05:54:57;;;;;;;31.33;27.77;;;34.80;56.10;;;;;;1864873;77;21615;-76
2023/03/20 05:57:28;;;;;;;33.75;27.27;;;34.80;56.20;;;;;;1891163;75;21679;-77
2023/03/20 06:00:00;;;;;;;35.95;28.35;;;35.00;56.20;;;;;;1880878;75;21183;-76
2023/03/20 06:02:31;;;;;;;33.30;27.95;;;35.10;56.10;;;;;;1863385;75;21136;-77
2023/03/20 06:05:11;;;;;;;32.33;27.98;;;35.20;56.30;;;;;;1864614;75;21205;-76
2023/03/20 06:07:37;;;;;;;;;;;35.30;56.20;;;;;;1866930;75;21216;-77
2023/03/20 06:10:09;;;;;;;33.18;26.95;;;35.30;56.80;;;;;;1832430;77;20187;-78
2023/03/20 06:12:40;;;;;;;33.50;27.25;;;35.40;54.90;;;;;;1902071;75;21153;-75
2023/03/20 06:15:12;;;;;;;33.80;26.07;;;35.40;54.60;;;;;;1894009;75;21142;-75
2023/03/20 06:17:43;;;;;;;39.65;26.87;;;35.50;54.60;;;;;;1870181;75;21820;-76
2023/03/20 06:20:15;;;;;;;48.17;25.80;;;35.50;54.60;;;;;;1873065;75;21146;-77
2023/03/20 06:22:46;;;;;;;33.65;24.50;;;35.30;53.80;;;;;;1862928;75;21442;-75
2023/03/20 06:25:17;;;;;;;63.87;28.83;;;35.30;53.20;;;;;;1865109;77;21138;-76
2023/03/20 06:27:49;;;;;;;42.93;26.60;;;35.30;53.70;;;;;;1866740;75;21208;-76
2023/03/20 06:30:20;;;;;;;30.08;25.25;;;35.30;54.40;;;;;;1829367;78;21268;-77
2023/03/20 06:32:54;;;;;;;30.68;25.72;;;35.30;54.70;;;;;;1858037;77;21136;-75
2023/03/20 06:35:29;;;;;;;29.63;26.25;;;35.40;54.80;;;;;;1860819;76;21146;-76
2023/03/20 06:38:01;;;;;;;29.32;25.37;;;35.50;55.10;;;;;;1869886;75;21142;-77
2023/03/20 06:40:32;;;;;;;28.90;24.98;;;35.50;54.60;;;;;;1859859;76;21653;-78
2023/03/20 06:43:04;;;;;;;32.75;25.72;;;35.50;54.80;;;;;;1855847;77;21127;-77
2023/03/20 06:45:35;;;;;;;35.23;26.40;;;35.50;54.30;;;;;;1821027;78;21214;-75
2023/03/20 06:48:08;;;;;;;33.05;25.55;;;35.50;54.10;;;;;;1858050;77;21095;-76
2023/03/20 06:50:40;;;;;;;28.50;25.08;;;35.60;54.00;;;;;;1848747;76;21242;-77
2023/03/20 06:53:11;;;;;;;33.08;26.85;;;35.60;54.10;;;;;;1825215;77;21560;-77
2023/03/20 06:55:43;;;;;;;32.83;25.68;;;35.60;54.40;;;;;;1855621;77;21088;-77
2023/03/20 06:58:18;;;;;;;33.47;26.87;;;35.50;53.70;;;;;;1834967;76;21263;-76
2023/03/20 07:00:50;;;;;;;31.05;25.95;;;35.40;54.30;;;;;;1824511;78;21185;-76
2023/03/20 07:03:22;;;;;;;30.15;25.25;;;35.20;54.00;;;;;;1854375;77;21165;-78
2023/03/20 07:05:54;;;;;;;34.10;26.45;;;35.10;54.00;;;;;;1854338;76;21908;-76
2023/03/20 07:08:25;;;;;;;30.35;25.55;;;35.10;54.20;;;;;;1846610;76;21495;-77
2023/03/20 07:10:56;;;;;;;30.08;26.80;;;35.00;54.60;;;;;;1823575;77;22015;-77
2023/03/20 07:13:28;;;;;;;36.45;25.65;;;34.90;54.80;;;;;;1802720;78;21702;-78
2023/03/20 07:16:00;;;;;;;42.73;28.02;;;34.90;54.90;;;;;;1825020;78;21115;-78
2023/03/20 07:18:33;;;;;;;28.38;25.30;;;34.90;55.20;;;;;;1860814;76;21177;-77
2023/03/20 07:21:06;;;;;;;33.60;27.00;;;34.90;55.00;;;;;;1876131;76;21587;-77
2023/03/20 07:23:38;;;;;;;41.83;27.17;;;34.90;55.20;;;;;;1843288;77;21412;-76
2023/03/20 07:26:13;;;;;;;32.33;24.98;;;34.90;55.50;;;;;;1825792;78;21096;-77
2023/03/20 07:28:46;;;;;;;27.15;23.80;;;35.00;54.80;;;;;;1825087;77;21217;-77
2023/03/20 07:31:25;;;;;;;35.48;25.77;;;35.10;54.10;;;;;;1855919;77;21214;-79
2023/03/20 07:33:56;;;;;;;52.38;27.50;;;35.10;54.10;;;;;;1824145;78;21151;-77
2023/03/20 07:36:27;;;;;;;30.45;23.35;;;35.20;54.50;;;;;;1823910;78;21194;-77
2023/03/20 07:39:04;;;;;;;28.75;24.15;;;35.20;54.40;;;;;;1853191;76;21229;-79
2023/03/20 07:41:31;;;;;;;30.95;23.42;;;35.20;54.40;;;;;;1862345;74;21143;-76
2023/03/20 07:44:03;;;;;;;35.03;25.45;;;35.20;54.50;;;;;;1823863;78;21178;-75
2023/03/20 07:46:34;;;;;;;31.37;25.27;;;35.20;55.20;;;;;;1852281;76;21123;-77
2023/03/20 07:49:06;;;;;;;27.27;24.37;;;35.30;54.60;;;;;;1858485;76;21186;-76
2023/03/20 07:51:38;;;;;;;25.55;22.73;;;35.30;53.90;;;;;;1885837;75;21193;-75
2023/03/20 07:54:10;;;;;;;25.82;22.98;;;35.30;52.70;;;;;;1871221;75;21570;-76
2023/03/20 07:56:41;;;;;;;26.42;22.77;;;35.40;52.70;;;;;;1856796;77;21249;-77
2023/03/20 07:59:14;;;;;;;40.58;25.20;;;35.40;53.10;;;;;;1880239;75;21127;-77
2023/03/20 08:01:48;;;;;;;30.23;22.80;;;35.40;53.00;;;;;;1867837;74;21185;-76
2023/03/20 08:04:21;;;;;;;28.95;22.85;;;35.40;51.80;;;;;;1866901;76;21232;-77
2023/03/20 08:06:55;;;;;;;25.17;22.48;;;35.40;52.10;;;;;;1875552;75;22267;-77
2023/03/20 08:09:26;;;;;;;30.02;23.47;;;35.30;52.10;;;;;;1867629;75;21186;-76
2023/03/20 08:12:00;;;;;;;37.25;23.52;;;35.40;50.60;;;;;;1842899;77;21618;-77
2023/03/20 08:14:31;;;;;;;34.55;21.55;;;35.40;50.40;;;;;;1863371;77;21546;-75
2023/03/20 08:17:02;;;;;;;25.15;21.07;;;35.50;50.50;;;;;;1857531;77;21614;-76
2023/03/20 08:19:35;;;;;;;27.25;22.25;;;35.50;49.90;;;;;;1868109;75;21113;-77
2023/03/20 08:22:06;;;;;;;39.83;22.75;;;35.50;50.00;;;;;;1906300;74;21174;-77
2023/03/20 08:24:39;;;;;;;31.40;23.20;;;35.50;50.20;;;;;;1912038;74;21279;-75
2023/03/20 08:27:10;;;;;;;27.30;21.85;;;35.40;50.70;;;;;;1901715;74;21212;-76
2023/03/20 08:29:41;;;;;;;25.55;22.10;;;35.50;51.00;;;;;;1907807;74;21169;-77
2023/03/20 08:32:12;;;;;;;23.47;21.05;;;35.50;51.90;;;;;;1905201;74;21129;-77
2023/03/20 08:34:46;;;;;;;25.57;21.87;;;35.40;50.80;;;;;;1910689;74;21168;-78
2023/03/20 08:37:16;;;;;;;23.07;20.15;;;35.50;51.20;;;;;;1903751;74;21197;-77
2023/03/20 08:39:49;;;;;;;23.67;21.15;;;35.50;50.40;;;;;;1877921;74;21099;-76
2023/03/20 08:42:21;;;;;;;26.37;21.52;;;35.50;49.80;;;;;;1889334;75;21269;-77
2023/03/20 08:44:52;;;;;;;45.48;22.07;;;35.50;50.10;;;;;;1872980;76;21666;-78
2023/03/20 08:47:23;;;;;;;23.85;20.85;;;35.50;49.20;;;;;;1882899;76;21163;-78
2023/03/20 08:49:54;;;;;;;23.85;20.97;;;35.50;49.00;;;;;;1883486;76;21189;-76
2023/03/20 08:52:26;;;;;;;37.80;20.77;;;35.50;49.80;;;;;;1882798;76;21437;-77
2023/03/20 08:54:57;;;;;;;28.02;20.52;;;35.60;49.60;;;;;;1864804;75;21893;-79
2023/03/20 08:57:29;;;;;;;27.85;20.65;;;35.60;49.40;;;;;;1883715;75;21269;-79
2023/03/20 09:00:00;;;;;;;23.18;20.62;;;35.60;49.80;;;;;;1882220;76;21274;-77
2023/03/20 09:02:31;;;;;;;23.60;21.12;;;35.60;49.60;;;;;;1882525;76;21618;-77
2023/03/20 09:05:03;;;;;;;23.45;20.50;;;35.60;48.80;;;;;;1881832;76;21447;-78
2023/03/20 09:07:34;;;;;;;22.75;20.35;;;35.50;49.60;;;;;;1881507;75;21169;-77
2023/03/20 09:10:06;;;;;;;24.25;19.37;;;35.50;49.00;;;;;;1884741;75;21116;-77
2023/03/20 09:12:38;;;;;;;27.40;20.30;;;35.50;48.60;;;;;;1885294;75;22009;-80
2023/03/20 09:15:10;;;;;;;27.58;23.62;;;35.50;48.60;;;;;;1865819;75;21178;-76
2023/03/20 09:17:41;;;;;;;22.87;19.87;;;35.50;49.10;;;;;;1885256;76;21155;-76
2023/03/20 09:20:13;;;;;;;24.55;20.00;;;35.50;49.10;;;;;;1882111;75;21596;-75
2023/03/20 09:22:44;;;;;;;22.00;19.62;;;35.50;48.00;;;;;;1881481;76;21128;-76
2023/03/20 09:25:19;;;;;;;26.12;19.90;;;35.40;48.20;;;;;;1866708;76;21892;-78
2023/03/20 09:27:54;;;;;;;24.80;20.15;;;35.40;48.50;;;;;;1881298;76;21193;-80
2023/03/20 09:30:25;;;;;;;24.45;19.70;;;35.40;49.10;;;;;;1879734;75;21140;-77
2023/03/20 09:32:57;;;;;;;22.65;19.50;;;35.30;48.50;;;;;;1888507;75;21175;-77
2023/03/20 09:35:28;;;;;;;24.40;19.40;;;35.30;48.60;;;;;;1870462;75;21237;-77
2023/03/20 09:37:59;;;;;;;22.07;19.45;;;35.30;48.50;;;;;;1832310;78;21187;-77
2023/03/20 09:40:38;;;;;;;23.75;18.87;;;35.20;48.40;;;;;;1837231;77;21127;-76
2023/03/20 09:43:15;;;;;;;27.00;19.15;;;35.20;48.60;;;;;;1841934;78;21144;-76
2023/03/20 09:46:10;;;;;;;26.55;19.55;;;35.20;48.70;;;;;;1871550;75;21351;-77
2023/03/20 09:48:55;;;;;;;25.03;19.50;;;35.20;48.80;;;;;;1873944;76;21214;-75
2023/03/20 09:51:38;;;;;;;33.43;22.50;;;35.20;49.40;;;;;;1873187;76;21902;-77
2023/03/20 09:54:28;;;;;;;27.85;20.48;;;35.10;48.90;;;;;;1873232;75;21205;-78
2023/03/20 09:57:01;;;;;;;23.98;20.02;;;35.10;49.00;;;;;;1865206;75;21556;-78
2023/03/20 09:59:34;;;;;;;24.30;19.50;;;35.00;48.40;;;;;;1873378;76;21129;-78
2023/03/20 10:02:24;;;;;;;25.00;19.25;;;35.00;48.50;;;;;;1878421;75;21611;-78
2023/03/20 10:04:55;;;;;;;20.70;18.07;;;35.00;48.30;;;;;;1875496;75;21127;-77
2023/03/20 10:07:27;;;;;;;25.55;20.65;;;35.00;48.90;;;;;;1873513;76;21413;-76
2023/03/20 10:09:58;;;;;;;23.22;18.90;;;35.00;48.60;;;;;;1873415;76;21695;-76
2023/03/20 10:12:44;;;;;;;33.00;20.25;;;35.00;49.20;;;;;;1873330;76;21128;-76
2023/03/20 10:15:40;;;;;;;25.52;19.40;;;35.00;48.50;;;;;;1862098;75;21139;-75
2023/03/20 10:18:25;;;;;;;27.45;19.37;;;35.00;48.50;;;;;;1873126;76;21294;-77
2023/03/20 10:21:01;;;;;;;21.85;19.55;;;35.00;48.40;;;;;;1873481;75;21281;-77
2023/03/20 10:23:37;;;;;;;23.83;18.02;;;35.00;48.90;;;;;;1877419;75;21202;-77
2023/03/20 10:26:11;;;;;;;30.48;20.12;;;35.00;49.10;;;;;;1873662;76;21359;-77
2023/03/20 10:28:47;;;;;;;25.05;20.37;;;34.90;48.60;;;;;;1872986;75;21121;-76
2023/03/20 10:31:31;;;;;;;;;;;34.90;48.70;;;;;;1876178;75;21131;-78
2023/03/20 10:34:21;;;;;;;29.95;19.70;;;34.90;47.90;;;;;;1882886;75;20250;-77
2023/03/20 10:37:04;;;;;;;23.40;19.45;;;34.80;48.30;;;;;;1872973;76;21144;-78
2023/03/20 10:39:37;;;;;;;25.25;20.32;;;34.80;48.20;;;;;;1883373;75;21168;-76
2023/03/20 10:42:17;;;;;;;24.60;19.10;;;34.80;47.30;;;;;;1854817;77;21188;-76
2023/03/20 10:44:51;;;;;;;23.20;18.73;;;34.80;47.60;;;;;;1821275;78;21187;-78
2023/03/20 10:47:24;;;;;;;23.77;19.50;;;34.80;48.60;;;;;;1854012;75;21888;-78
2023/03/20 10:50:00;;;;;;;22.95;18.20;;;34.70;48.50;;;;;;1851964;77;21271;-77
2023/03/20 10:52:40;;;;;;;24.67;19.48;;;34.70;47.70;;;;;;1866149;76;21131;-79
2023/03/20 10:55:13;;;;;;;24.40;18.80;;;34.70;48.20;;;;;;1858368;76;21150;-76
2023/03/20 10:57:47;;;;;;;24.27;19.17;;;34.70;48.40;;;;;;1855646;77;21147;-79
2023/03/20 11:00:23;;;;;;;22.40;19.48;;;34.60;48.80;;;;;;1823237;78;21483;-77
2023/03/20 11:02:55;;;;;;;28.30;20.30;;;34.60;49.10;;;;;;1826541;77;21191;-78
2023/03/20 11:05:37;;;;;;;27.07;19.37;;;34.50;49.30;;;;;;1842581;77;21249;-77
2023/03/20 11:08:10;;;;;;;25.10;19.45;;;34.50;48.80;;;;;;1832387;77;21182;-77
2023/03/20 11:10:43;;;;;;;25.12;20.15;;;34.50;48.90;;;;;;1850888;77;21628;-77
2023/03/20 11:13:33;;;;;;;38.55;20.75;;;34.50;49.00;;;;;;1855148;77;21429;-76
2023/03/20 11:16:10;;;;;;;32.53;20.30;;;34.50;49.20;;;;;;1856589;75;21183;-85
2023/03/20 11:18:42;;;;;;;32.48;21.77;;;34.40;49.80;;;;;;1827136;78;21186;-84
2023/03/20 11:21:17;;;;;;;31.75;20.97;;;34.40;49.60;;;;;;1828588;78;21112;-87
2023/03/20 11:23:50;;;;;;;26.73;20.65;;;34.40;49.90;;;;;;1796676;79;21252;-87
2023/03/20 11:26:26;;;;;;;32.78;22.17;;;34.30;50.10;;;;;;1868870;76;21132;-87
2023/03/20 11:28:58;;;;;;;28.30;21.33;;;34.30;50.10;;;;;;1823506;78;21112;-86
2023/03/20 11:31:40;;;;;;;29.23;22.42;;;34.20;50.50;;;;;;1860742;75;21171;-85
2023/03/20 11:34:27;;;;;;;30.90;20.97;;;34.20;50.60;;;;;;1822150;77;21179;-88
2023/03/20 11:37:00;;;;;;;29.15;20.90;;;34.20;50.50;;;;;;1814252;77;21419;-82
2023/03/20 11:39:33;;;;;;;36.05;21.42;;;34.20;50.70;;;;;;1848175;76;21090;-84
2023/03/20 11:42:06;;;;;;;32.83;22.15;;;34.20;50.70;;;;;;1825018;77;21211;-86
2023/03/20 11:44:37;;;;;;;25.92;21.42;;;34.10;50.80;;;;;;1818716;77;21246;-86
2023/03/20 11:47:14;;;;;;;26.87;21.17;;;34.10;50.80;;;;;;1824800;78;21719;-86
2023/03/20 11:49:51;;;;;;;28.12;21.12;;;34.00;50.80;;;;;;1857432;77;21123;-85
2023/03/20 11:52:28;;;;;;;35.43;21.77;;;34.00;50.80;;;;;;1823661;77;21226;-88
2023/03/20 11:55:02;;;;;;;27.58;22.30;;;34.00;51.10;;;;;;1863932;75;21252;-87
2023/03/20 11:57:40;;;;;;;31.27;21.15;;;34.00;51.20;;;;;;1863170;76;21799;-83
2023/03/20 12:00:30;;;;;;;27.30;20.90;;;33.90;51.40;;;;;;1866582;76;21235;-84
2023/03/20 12:02:59;;;;;;;27.03;21.33;;;33.90;51.50;;;;;;1833384;77;21257;-83
2023/03/20 12:05:41;;;;;;;27.25;21.68;;;33.80;51.30;;;;;;1857660;77;21566;-84
2023/03/20 12:08:18;;;;;;;28.60;21.55;;;33.80;51.40;;;;;;1862747;76;21126;-83
2023/03/20 12:10:54;;;;;;;30.65;22.73;;;33.80;51.40;;;;;;1868113;76;21135;-84
2023/03/20 12:13:28;;;;;;;32.83;23.05;;;33.80;51.60;;;;;;1863911;76;21127;-85
2023/03/20 12:16:07;;;;;;;31.40;21.65;;;33.80;51.50;;;;;;1865017;76;21119;-85
2023/03/20 12:18:51;;;;;;;28.85;21.73;;;33.70;51.60;;;;;;1869319;76;21232;-83
2023/03/20 12:21:27;;;;;;;33.02;22.02;;;33.70;51.50;;;;;;1857269;75;21682;-84
2023/03/20 12:24:20;;;;;;;34.55;22.20;;;33.70;51.60;;;;;;1855701;76;21182;-83
2023/03/20 12:27:24;;;;;;;27.00;22.02;;;33.60;51.60;;;;;;1882318;76;21134;-84
2023/03/20 12:30:12;;;;;;;28.10;21.05;;;33.60;51.70;;;;;;1869091;76;21296;-86
2023/03/20 12:33:00;;;;;;;27.45;21.80;;;33.60;51.60;;;;;;1868924;76;21162;-84
2023/03/20 12:35:34;;;;;;;29.37;22.10;;;33.60;51.40;;;;;;1821570;76;21150;-85
2023/03/20 12:38:10;;;;;;;35.40;22.55;;;33.60;51.50;;;;;;1891409;76;21060;-86
2023/03/20 12:40:42;;;;;;;;;;;33.60;51.60;;;;;;1859510;76;21174;-86
2023/03/20 12:43:18;;;;;;;27.52;21.73;;;33.50;53.00;;;;;;1883854;76;20132;-85
2023/03/20 12:46:00;;;;;;;33.98;22.22;;;33.50;51.30;;;;;;1871003;75;21204;-83
2023/03/20 12:48:39;;;;;;;28.17;22.67;;;33.50;51.60;;;;;;1832932;77;21097;-84
2023/03/20 12:51:17;;;;;;;31.00;22.67;;;33.50;51.40;;;;;;1888147;76;21125;-83
2023/03/20 12:54:02;;;;;;;30.45;22.58;;;33.50;51.70;;;;;;1888964;76;21075;-84
2023/03/20 12:56:45;;;;;;;32.48;25.80;;;33.50;51.80;;;;;;1859203;76;21201;-84
2023/03/20 12:59:21;;;;;;;36.73;26.33;;;33.40;52.00;;;;;;1869788;76;21118;-84
2023/03/20 13:02:00;;;;;;;38.50;28.40;;;33.40;52.00;;;;;;1864044;76;21196;-83
2023/03/20 13:08:12;;;;;;;36.98;27.42;;;33.30;52.10;;;;;;1862279;77;21098;-84
2023/03/20 13:11:02;;;;;;;35.52;27.32;;;33.30;52.50;;;;;;1845658;77;21183;-85
2023/03/20 13:13:47;;;;;;;37.98;29.45;;;33.20;52.90;;;;;;1890088;74;21118;-84
2023/03/20 13:16:43;;;;;;;43.87;32.70;;;33.20;53.40;;;;;;1842996;77;21126;-85
2023/03/20 13:19:39;;;;;;;45.30;29.55;;;33.20;53.70;;;;;;1868524;76;21130;-84
2023/03/20 13:22:24;;;;;;;43.68;30.00;;;33.10;53.50;;;;;;1858227;76;21930;-85